createdAt,value
2018-01-31T01:52:20.475Z,92.20
2018-01-31T01:52:21.005Z,94.10
2018-01-31T01:54:25.108Z,94.10
2018-01-31T01:56:52.599Z,94.20
2018-01-31T01:59:20.060Z,94.20
2018-01-31T02:01:47.514Z,94.20
2018-01-31T02:04:15.000Z,94.30
2018-01-31T02:06:42.449Z,94.40
2018-01-31T02:09:09.988Z,94.40
2018-01-31T02:11:37.440Z,94.40
2018-01-31T02:14:04.896Z,94.50
2018-01-31T02:16:32.328Z,94.60
2018-01-31T02:18:59.761Z,94.60
2018-01-31T02:21:27.979Z,94.70
2018-01-31T02:23:55.447Z,94.70
2018-01-31T02:26:22.887Z,94.70
2018-01-31T02:28:50.319Z,94.80
2018-01-31T02:31:18.520Z,94.90
2018-01-31T02:33:45.951Z,95.20
2018-01-31T02:36:14.154Z,94.90
2018-01-31T02:38:53.496Z,94.90
2018-01-31T02:41:20.955Z,95.00
2018-01-31T02:43:48.379Z,95.00
2018-01-31T02:46:15.816Z,95.10
2018-01-31T02:48:44.040Z,95.10
2018-01-31T02:51:11.500Z,95.20
2018-01-31T02:53:38.967Z,95.20
2018-01-31T02:56:06.416Z,95.20
2018-01-31T02:58:33.852Z,95.30
2018-01-31T03:01:01.287Z,95.30
2018-01-31T03:03:29.608Z,95.40
2018-01-31T03:05:57.060Z,95.40
2018-01-31T03:08:24.500Z,95.40
2018-01-31T03:10:51.944Z,95.40
2018-01-31T03:13:19.436Z,95.50
2018-01-31T03:15:46.868Z,95.60
2018-01-31T03:18:14.300Z,95.60
2018-01-31T03:20:42.499Z,95.70
2018-01-31T03:23:09.929Z,95.70
2018-01-31T03:25:38.142Z,95.80
2018-01-31T03:28:05.610Z,95.80
2018-01-31T03:30:33.069Z,95.90
2018-01-31T03:33:00.526Z,95.90
2018-01-31T03:35:27.952Z,95.90
2018-01-31T03:37:55.444Z,96.00
2018-01-31T03:40:22.913Z,96.00
2018-01-31T03:42:50.344Z,96.10
2018-01-31T03:45:17.772Z,96.20
2018-01-31T03:47:45.975Z,96.20
2018-01-31T03:50:13.404Z,96.20
2018-01-31T03:52:41.608Z,96.30
2018-01-31T03:55:09.338Z,96.30
2018-01-31T03:57:37.528Z,96.40
2018-01-31T04:00:05.009Z,96.40
2018-01-31T04:02:32.468Z,96.40
2018-01-31T04:04:59.892Z,96.40
2018-01-31T04:07:27.333Z,96.50
2018-01-31T04:09:55.582Z,96.50
2018-01-31T04:12:23.020Z,96.50
2018-01-31T04:14:50.478Z,96.50
2018-01-31T04:17:17.912Z,96.50
2018-01-31T04:19:45.387Z,96.50
2018-01-31T04:22:12.816Z,96.50
2018-01-31T04:24:40.303Z,96.50
2018-01-31T04:27:07.728Z,96.50
2018-01-31T04:29:35.220Z,96.50
2018-01-31T04:32:02.773Z,96.50
2018-01-31T04:34:30.204Z,96.50
2018-01-31T04:36:57.627Z,96.40
2018-01-31T04:39:25.069Z,96.40
2018-01-31T04:41:52.595Z,96.40
2018-01-31T04:44:20.051Z,96.40
2018-01-31T04:46:47.511Z,96.40
2018-01-31T04:49:15.005Z,96.40
2018-01-31T04:51:42.462Z,96.40
2018-01-31T04:54:09.984Z,96.30
2018-01-31T04:56:37.541Z,96.20
2018-01-31T04:59:04.948Z,96.20
2018-01-31T05:01:32.483Z,96.20
2018-01-31T05:03:59.899Z,96.10
2018-01-31T05:06:27.381Z,96.10
2018-01-31T05:08:54.877Z,96.10
2018-01-31T05:11:22.399Z,96.00
2018-01-31T05:13:49.850Z,96.30
2018-01-31T05:16:17.272Z,96.00
2018-01-31T05:18:45.460Z,95.90
2018-01-31T05:21:12.939Z,95.90
2018-01-31T05:23:40.375Z,95.80
2018-01-31T05:26:07.855Z,95.70
2018-01-31T05:28:35.292Z,95.70
2018-01-31T05:31:02.729Z,95.70
2018-01-31T05:33:30.934Z,95.80
2018-01-31T05:35:58.360Z,95.70
2018-01-31T05:38:26.572Z,95.80
2018-01-31T05:40:53.988Z,95.70
2018-01-31T05:43:22.184Z,95.80
2018-01-31T05:45:49.620Z,95.80
2018-01-31T05:48:17.808Z,95.80
2018-01-31T05:50:45.234Z,95.80
2018-01-31T05:53:13.464Z,95.60
2018-01-31T05:55:40.924Z,95.60
2018-01-31T05:58:08.344Z,95.50
2018-01-31T06:00:36.548Z,95.20
2018-01-31T06:03:04.012Z,95.30
2018-01-31T06:05:31.461Z,95.20
2018-01-31T06:07:58.887Z,95.10
2018-01-31T06:10:27.072Z,94.90
2018-01-31T06:12:54.500Z,94.90
2018-01-31T06:15:21.932Z,94.90
2018-01-31T06:17:49.371Z,94.80
2018-01-31T06:20:16.828Z,94.80
2018-01-31T06:22:44.270Z,94.70
2018-01-31T06:25:11.740Z,94.70
2018-01-31T06:27:39.198Z,95.00
2018-01-31T06:30:06.633Z,94.70
2018-01-31T06:32:34.113Z,94.70
2018-01-31T06:35:01.576Z,94.80
2018-01-31T06:37:29.013Z,94.80
2018-01-31T06:39:56.480Z,94.80
2018-01-31T06:42:23.916Z,94.90
2018-01-31T06:44:51.404Z,94.90
2018-01-31T06:47:18.829Z,94.90
2018-01-31T06:49:46.308Z,94.90
2018-01-31T06:52:13.782Z,94.90
2018-01-31T06:54:41.228Z,94.90
2018-01-31T06:57:08.651Z,94.90
2018-01-31T06:59:36.853Z,94.90
2018-01-31T07:02:04.312Z,94.90
2018-01-31T07:04:31.773Z,94.90
2018-01-31T07:06:59.212Z,94.90
2018-01-31T07:09:26.684Z,94.90
2018-01-31T07:11:54.148Z,94.90
2018-01-31T07:14:21.601Z,94.90
2018-01-31T07:16:49.062Z,94.90
2018-01-31T07:19:16.484Z,94.80
2018-01-31T07:21:43.976Z,94.70
2018-01-31T07:24:11.404Z,94.60
2018-01-31T07:26:38.824Z,94.50
2018-01-31T07:29:06.348Z,94.50
2018-01-31T07:31:33.816Z,94.40
2018-01-31T07:34:01.248Z,94.30
2018-01-31T07:36:28.716Z,94.20
2018-01-31T07:38:56.152Z,94.10
2018-01-31T07:41:23.575Z,94.10
2018-01-31T07:43:52.113Z,93.80
2018-01-31T07:46:19.544Z,94.10
2018-01-31T07:48:46.972Z,94.20
2018-01-31T07:51:15.180Z,94.30
2018-01-31T07:53:42.657Z,94.30
2018-01-31T07:56:10.076Z,94.40
2018-01-31T07:58:38.278Z,94.60
2018-01-31T08:01:05.742Z,94.60
2018-01-31T08:03:33.164Z,94.80
2018-01-31T08:06:01.388Z,94.90
2018-01-31T08:08:28.812Z,94.90
2018-01-31T08:10:56.295Z,95.00
2018-01-31T08:13:23.738Z,95.00
2018-01-31T08:15:51.164Z,95.10
2018-01-31T08:18:19.356Z,95.10
2018-01-31T08:20:47.145Z,95.10
2018-01-31T08:23:15.514Z,95.00
2018-01-31T08:25:42.933Z,95.10
2018-01-31T08:28:11.129Z,94.90
2018-01-31T08:30:38.564Z,94.90
2018-01-31T08:33:06.780Z,94.90
2018-01-31T08:35:34.280Z,94.90
2018-01-31T08:38:01.800Z,94.80
2018-01-31T08:40:29.251Z,94.70
2018-01-31T08:42:56.667Z,94.60
2018-01-31T08:45:24.868Z,94.30
2018-01-31T08:47:52.352Z,94.30
2018-01-31T08:50:19.892Z,94.20
2018-01-31T08:52:47.317Z,94.20
2018-01-31T08:55:15.536Z,94.00
2018-01-31T08:57:42.978Z,94.00
2018-01-31T09:00:10.444Z,93.80
2018-01-31T09:02:37.900Z,93.70
2018-01-31T09:05:05.346Z,93.60
2018-01-31T09:07:32.820Z,93.60
2018-01-31T09:10:00.277Z,93.50
2018-01-31T09:12:27.722Z,93.50
2018-01-31T09:14:56.000Z,93.30
2018-01-31T09:17:23.468Z,93.30
2018-01-31T09:19:51.152Z,93.30
2018-01-31T09:22:18.569Z,93.10
2018-01-31T09:24:45.997Z,93.10
2018-01-31T09:27:14.205Z,93.00
2018-01-31T09:29:41.647Z,93.00
2018-01-31T09:32:09.069Z,93.00
2018-01-31T09:34:36.512Z,93.00
2018-01-31T09:37:03.933Z,93.20
2018-01-31T09:39:31.362Z,92.90
2018-01-31T09:41:59.582Z,92.70
2018-01-31T09:44:27.020Z,92.70
2018-01-31T09:46:54.484Z,92.70
2018-01-31T09:49:21.957Z,92.70
2018-01-31T09:51:49.396Z,92.70
2018-01-31T09:54:16.951Z,92.80
2018-01-31T09:56:44.420Z,92.80
2018-01-31T09:59:12.104Z,92.80
2018-01-31T10:01:39.949Z,92.80
2018-01-31T10:04:08.726Z,92.80
2018-01-31T10:06:36.188Z,92.80
2018-01-31T10:09:03.603Z,92.80
2018-01-31T10:11:31.832Z,92.90
2018-01-31T10:13:59.276Z,92.90
2018-01-31T10:16:26.745Z,92.90
2018-01-31T10:18:54.902Z,93.00
2018-01-31T10:21:22.372Z,93.00
2018-01-31T10:23:49.821Z,93.10
2018-01-31T10:26:17.260Z,93.20
2018-01-31T10:28:44.738Z,93.20
2018-01-31T10:31:12.199Z,93.10
2018-01-31T10:33:39.632Z,93.00
2018-01-31T10:36:07.120Z,92.90
2018-01-31T10:38:34.572Z,92.80
2018-01-31T10:41:02.126Z,92.70
2018-01-31T10:43:29.584Z,92.60
2018-01-31T10:45:57.042Z,92.40
2018-01-31T10:48:24.478Z,92.40
2018-01-31T10:50:51.896Z,92.30
2018-01-31T10:53:19.420Z,92.20
2018-01-31T10:58:14.300Z,92.10
2018-01-31T11:00:41.716Z,92.00
2018-01-31T11:03:09.912Z,92.10
2018-01-31T11:05:38.141Z,92.00
2018-01-31T11:08:05.588Z,91.90
2018-01-31T11:10:33.074Z,91.40
2018-01-31T11:13:00.514Z,91.30
2018-01-31T11:15:27.960Z,91.10
2018-01-31T11:17:55.437Z,91.10
2018-01-31T11:20:22.876Z,91.20
2018-01-31T11:22:50.304Z,91.30
2018-01-31T11:25:17.736Z,91.30
2018-01-31T11:27:45.655Z,91.40
2018-01-31T11:30:13.198Z,91.40
2018-01-31T11:32:40.892Z,91.50
2018-01-31T11:35:08.316Z,91.50
2018-01-31T11:37:35.796Z,91.50
2018-01-31T11:40:03.250Z,91.40
2018-01-31T11:42:30.711Z,91.40
2018-01-31T11:44:58.164Z,91.50
2018-01-31T11:47:25.624Z,91.60
2018-01-31T11:49:53.044Z,91.60
2018-01-31T11:52:21.253Z,91.80
2018-01-31T11:54:48.708Z,91.80
2018-01-31T11:57:16.168Z,92.00
2018-01-31T11:59:43.606Z,92.10
2018-01-31T12:02:11.024Z,92.10
2018-01-31T12:04:39.259Z,92.20
2018-01-31T12:07:06.677Z,92.20
2018-01-31T12:09:39.312Z,92.20
2018-01-31T12:12:06.746Z,92.20
2018-01-31T12:14:46.464Z,92.20
2018-01-31T12:17:13.911Z,92.30
2018-01-31T12:20:06.934Z,92.50
2018-01-31T12:22:46.157Z,92.50
2018-01-31T12:25:25.787Z,92.50
2018-01-31T12:28:05.154Z,92.50
2018-01-31T12:30:44.459Z,92.60
2018-01-31T12:33:23.604Z,92.60
2018-01-31T12:36:15.926Z,92.50
2018-01-31T12:38:55.405Z,92.50
2018-01-31T12:41:22.388Z,92.50
2018-01-31T12:43:49.320Z,92.50
2018-01-31T12:46:28.779Z,92.60
2018-01-31T12:49:03.833Z,92.70
2018-01-31T12:51:45.175Z,92.80
2018-01-31T12:54:24.680Z,92.80
2018-01-31T12:57:04.291Z,93.20
2018-01-31T12:59:43.681Z,93.00
2018-01-31T13:02:23.892Z,93.00
2018-01-31T13:05:04.196Z,93.00
2018-01-31T13:07:44.384Z,93.00
2018-01-31T13:10:23.720Z,93.00
2018-01-31T13:13:03.190Z,92.90
2018-01-31T13:15:55.430Z,92.80
2018-01-31T13:18:44.548Z,92.70
2018-01-31T13:21:24.041Z,92.60
2018-01-31T13:24:03.224Z,92.40
2018-01-31T13:29:24.372Z,92.20
2018-01-31T13:32:03.924Z,92.10
2018-01-31T13:34:43.348Z,92.00
2018-01-31T13:37:28.494Z,91.90
2018-01-31T13:40:08.520Z,91.80
2018-01-31T13:42:58.868Z,91.70
2018-01-31T13:45:53.188Z,91.70
2018-01-31T13:48:32.400Z,91.60
2018-01-31T13:51:02.479Z,91.60
2018-01-31T13:53:42.661Z,91.70
2018-01-31T13:56:22.097Z,91.70
2018-01-31T13:59:01.640Z,91.60
2018-01-31T14:01:41.152Z,91.60
2018-01-31T14:04:20.724Z,91.60
2018-01-31T14:07:00.076Z,91.70
2018-01-31T14:09:39.491Z,91.60
2018-01-31T14:12:18.832Z,91.70
2018-01-31T14:14:58.140Z,91.80
2018-01-31T14:17:48.559Z,91.70
2018-01-31T14:20:27.895Z,91.50
2018-01-31T14:23:07.321Z,91.60
2018-01-31T14:25:46.796Z,91.70
2018-01-31T14:28:26.232Z,91.90
2018-01-31T14:30:55.212Z,92.00
2018-01-31T14:33:34.684Z,92.00
2018-01-31T14:36:12.828Z,92.10
2018-01-31T14:38:39.807Z,92.00
2018-01-31T14:41:06.783Z,92.00
2018-01-31T14:43:33.796Z,92.00
2018-01-31T14:46:00.740Z,92.10
2018-01-31T14:48:27.678Z,92.10
2018-01-31T14:50:54.688Z,92.00
2018-01-31T14:53:22.504Z,91.80
2018-01-31T14:55:49.444Z,91.80
2018-01-31T14:58:16.380Z,91.70
2018-01-31T15:00:43.436Z,91.70
2018-01-31T15:03:10.484Z,91.60
2018-01-31T15:05:37.418Z,91.60
2018-01-31T15:08:04.360Z,91.60
2018-01-31T15:10:31.296Z,91.60
2018-01-31T15:12:58.266Z,91.50
2018-01-31T15:15:25.208Z,91.50
2018-01-31T15:17:52.142Z,91.40
2018-01-31T15:20:19.101Z,91.30
2018-01-31T15:22:46.144Z,91.30
2018-01-31T15:25:13.095Z,91.30
2018-01-31T15:27:40.032Z,91.30
2018-01-31T15:30:07.001Z,91.30
2018-01-31T15:32:34.038Z,91.30
2018-01-31T15:35:00.975Z,91.30
2018-01-31T15:37:27.924Z,91.40
2018-01-31T15:39:54.905Z,91.40
2018-01-31T15:42:21.832Z,91.40
2018-01-31T15:44:48.856Z,91.30
2018-01-31T15:47:15.808Z,91.40
2018-01-31T15:49:42.873Z,91.40
2018-01-31T15:52:09.970Z,91.30
2018-01-31T15:54:37.682Z,91.40
2018-01-31T15:57:04.608Z,91.40
2018-01-31T15:59:31.660Z,91.40
2018-01-31T16:01:58.600Z,91.30
2018-01-31T16:04:25.536Z,91.30
2018-01-31T16:06:52.481Z,91.30
2018-01-31T16:09:19.414Z,91.30
2018-01-31T16:11:46.345Z,91.30
2018-01-31T16:14:14.053Z,91.20
2018-01-31T16:16:41.478Z,91.20
2018-01-31T16:19:20.935Z,91.30
2018-01-31T16:21:48.488Z,91.30
2018-01-31T16:24:15.900Z,91.30
2018-01-31T16:26:44.092Z,91.00
2018-01-31T16:29:24.220Z,91.10
2018-01-31T16:32:03.677Z,91.20
2018-01-31T16:34:31.867Z,91.20
2018-01-31T16:36:59.339Z,91.20
2018-01-31T16:39:26.812Z,91.20
2018-01-31T16:41:54.264Z,91.20
2018-01-31T16:44:21.664Z,91.20
2018-01-31T16:46:49.096Z,91.20
2018-01-31T16:49:16.536Z,91.30
2018-01-31T16:51:43.994Z,91.60
2018-01-31T16:54:11.445Z,91.30
2018-01-31T16:56:38.909Z,91.30
2018-01-31T16:59:06.370Z,91.20
2018-01-31T17:01:33.799Z,91.20
2018-01-31T17:04:01.286Z,91.20
2018-01-31T17:06:28.829Z,91.20
2018-01-31T17:08:56.316Z,91.20
2018-01-31T17:11:23.729Z,91.20
2018-01-31T17:13:51.163Z,91.30
2018-01-31T17:16:18.605Z,91.20
2018-01-31T17:18:46.053Z,91.20
2018-01-31T17:21:13.470Z,91.20
2018-01-31T17:23:40.933Z,91.20
2018-01-31T17:26:23.250Z,91.20
2018-01-31T17:28:50.699Z,91.20
2018-01-31T17:31:18.156Z,91.20
2018-01-31T17:33:45.600Z,91.50
2018-01-31T17:36:13.034Z,91.20
2018-01-31T17:38:41.235Z,91.20
2018-01-31T17:41:08.656Z,91.20
2018-01-31T17:43:36.883Z,91.30
2018-01-31T17:46:04.340Z,91.20
2018-01-31T17:48:31.791Z,91.20
2018-01-31T17:50:59.215Z,91.20
2018-01-31T17:53:26.715Z,91.20
2018-01-31T17:55:54.164Z,91.20
2018-01-31T17:58:21.572Z,91.30
2018-01-31T18:00:49.765Z,91.40
2018-01-31T18:03:17.192Z,91.40
2018-01-31T18:05:44.704Z,91.40
2018-01-31T18:08:12.161Z,91.40
2018-01-31T18:10:39.585Z,91.50
2018-01-31T18:13:07.831Z,91.50
2018-01-31T18:15:35.358Z,91.50
2018-01-31T18:18:02.809Z,91.50
2018-01-31T18:20:30.244Z,91.50
2018-01-31T18:22:57.664Z,91.50
2018-01-31T18:25:25.181Z,91.50
2018-01-31T18:27:52.620Z,91.20
2018-01-31T18:30:20.094Z,91.40
2018-01-31T18:32:48.228Z,91.70
2018-01-31T18:35:16.432Z,91.60
2018-01-31T18:37:43.880Z,91.60
2018-01-31T18:40:11.356Z,91.60
2018-01-31T18:42:38.783Z,91.70
2018-01-31T18:45:06.208Z,91.70
2018-01-31T18:47:33.644Z,91.70
2018-01-31T18:50:01.085Z,91.80
2018-01-31T18:52:28.540Z,91.80
2018-01-31T18:54:55.993Z,91.80
2018-01-31T18:57:23.426Z,91.70
2018-01-31T18:59:50.852Z,91.60
2018-01-31T19:02:18.276Z,91.50
2018-01-31T19:04:45.743Z,91.50
2018-01-31T19:07:13.255Z,91.30
2018-01-31T19:09:40.704Z,91.20
2018-01-31T19:12:08.140Z,91.10
2018-01-31T19:14:35.633Z,90.90
2018-01-31T19:17:03.076Z,90.80
2018-01-31T19:19:30.540Z,90.80
2018-01-31T19:21:57.967Z,90.60
2018-01-31T19:24:25.404Z,90.60
2018-01-31T19:26:53.624Z,90.30
2018-01-31T19:29:21.087Z,90.40
2018-01-31T19:31:48.516Z,90.30
2018-01-31T19:34:16.000Z,90.30
2018-01-31T19:36:43.424Z,90.30
2018-01-31T19:39:11.003Z,90.30
2018-01-31T19:41:38.444Z,90.20
2018-01-31T19:44:05.928Z,90.30
2018-01-31T19:46:33.433Z,90.30
2018-01-31T19:49:01.651Z,90.60
2018-01-31T19:51:29.093Z,90.40
2018-01-31T19:53:56.568Z,90.40
2018-01-31T19:56:24.039Z,90.30
2018-01-31T19:58:51.579Z,90.30
2018-01-31T20:01:19.041Z,90.40
2018-01-31T20:03:46.735Z,90.40
2018-01-31T20:06:14.172Z,90.40
2018-01-31T20:08:41.625Z,90.40
2018-01-31T20:11:09.408Z,90.40
2018-01-31T20:13:36.816Z,90.40
2018-01-31T20:16:04.236Z,90.40
2018-01-31T20:18:32.686Z,90.70
2018-01-31T20:21:00.140Z,90.30
2018-01-31T20:23:27.576Z,90.40
2018-01-31T20:25:55.008Z,90.40
2018-01-31T20:28:23.204Z,90.40
2018-01-31T20:30:50.637Z,90.40
2018-01-31T20:33:18.831Z,90.40
2018-01-31T20:35:46.256Z,90.40
2018-01-31T20:38:13.772Z,90.50
2018-01-31T20:40:41.204Z,90.50
2018-01-31T20:43:08.632Z,90.50
2018-01-31T20:45:36.144Z,90.50
2018-01-31T20:48:03.585Z,90.50
2018-01-31T20:50:31.023Z,90.50
2018-01-31T20:52:59.226Z,90.60
2018-01-31T20:55:26.660Z,90.60
2018-01-31T20:57:54.145Z,90.60
2018-01-31T21:00:21.603Z,90.70
2018-01-31T21:02:49.082Z,90.70
2018-01-31T21:05:16.518Z,90.70
2018-01-31T21:07:43.945Z,90.70
2018-01-31T21:10:12.350Z,90.80
2018-01-31T21:12:39.767Z,90.80
2018-01-31T21:15:08.086Z,90.80
2018-01-31T21:17:35.545Z,90.80
2018-01-31T21:20:02.995Z,90.70
2018-01-31T21:22:30.452Z,90.60
2018-01-31T21:24:58.015Z,90.60
2018-01-31T21:27:25.438Z,90.40
2018-01-31T21:29:53.676Z,90.60
2018-01-31T21:32:21.412Z,90.30
2018-01-31T21:34:48.849Z,90.10
2018-01-31T21:37:16.270Z,90.00
2018-01-31T21:39:43.785Z,89.90
2018-01-31T21:42:11.252Z,89.60
2018-01-31T21:44:38.678Z,89.60
2018-01-31T21:47:06.163Z,89.60
2018-01-31T21:49:33.618Z,89.50
2018-01-31T21:52:01.059Z,89.60
2018-01-31T21:54:28.486Z,89.80
2018-01-31T21:56:56.675Z,90.00
2018-01-31T21:59:24.104Z,90.00
2018-01-31T22:01:51.547Z,90.10
2018-01-31T22:04:18.977Z,90.10
2018-01-31T22:06:46.396Z,90.10
2018-01-31T22:09:13.857Z,90.20
2018-01-31T22:11:42.060Z,90.30
2018-01-31T22:14:09.516Z,90.30
2018-01-31T22:16:36.976Z,90.20
2018-01-31T22:19:04.400Z,90.20
2018-01-31T22:21:31.896Z,90.10
2018-01-31T22:23:59.346Z,90.10
2018-01-31T22:26:26.912Z,90.00
2018-01-31T22:28:54.372Z,90.00
2018-01-31T22:31:22.131Z,90.00
2018-01-31T22:33:49.556Z,89.90
2018-01-31T22:36:17.052Z,89.60
2018-01-31T22:38:44.502Z,89.30
2018-01-31T22:41:11.936Z,89.10
2018-01-31T22:43:39.429Z,89.00
2018-01-31T22:46:06.848Z,89.10
2018-01-31T22:48:34.408Z,89.00
2018-01-31T22:51:01.857Z,89.10
2018-01-31T22:53:29.294Z,89.20
2018-01-31T22:55:56.728Z,89.10
2018-01-31T22:58:24.158Z,89.10
2018-01-31T23:00:52.364Z,89.20
2018-01-31T23:03:19.822Z,89.20
2018-01-31T23:05:47.293Z,89.20
2018-01-31T23:08:14.868Z,89.10
2018-01-31T23:10:42.311Z,88.90
2018-01-31T23:13:15.416Z,88.90
2018-01-31T23:15:42.843Z,88.80
2018-01-31T23:18:16.292Z,88.70
2018-01-31T23:20:43.732Z,88.60
2018-01-31T23:23:11.984Z,88.60
2018-01-31T23:25:39.436Z,88.60
2018-01-31T23:28:06.861Z,88.60
2018-01-31T23:30:35.053Z,88.40
2018-01-31T23:33:02.484Z,88.40
2018-01-31T23:35:30.696Z,88.10
2018-01-31T23:37:58.132Z,88.20
2018-01-31T23:40:25.576Z,88.10
2018-01-31T23:42:53.806Z,87.90
2018-01-31T23:45:21.248Z,87.90
2018-01-31T23:47:48.798Z,88.00
2018-01-31T23:50:16.206Z,88.10
2018-01-31T23:52:43.625Z,88.20
2018-01-31T23:55:11.379Z,88.50
2018-01-31T23:57:38.808Z,88.70
